Time;durP1;ratioP1;P1;durP2;ratioP2;P2;SDS_P1;SDS_P2;PMS_P1;PMS_P2;Temp;Humidity;BMP_temperature;BMP_pressure;BME280_temperature;BME280_humidity;BME280_pressure;Samples;Min_cycle;Max_cycle;Signal;HPM_P1;HPM_P2
2022/02/09 00:00:29;;;;;;;0.00;0.00;;;;;19.60;100688.00;;;;5124266;27;20053;-73
2022/02/09 00:03:13;;;;;;;0.00;0.00;;;;;19.50;100688.00;;;;5129410;27;20517;-78
2022/02/09 00:06:31;;;;;;;0.45;0.45;;;;;19.40;100685.00;;;;5111760;27;20051;-77
2022/02/09 00:08:39;;;;;;;0.00;0.00;;;;;19.30;100678.00;;;;5107272;28;20056;-76
2022/02/09 00:11:15;;;;;;;0.00;0.00;;;;;19.20;100671.00;;;;5109114;28;20154;-77
2022/02/09 00:19:12;;;;;;;0.00;0.00;;;;;19.00;100677.00;;;;5108649;28;20132;-77
2022/02/09 00:30:09;;;;;;;0.00;0.00;;;;;18.80;100703.00;;;;5092672;27;20043;-76
2022/02/09 01:51:10;;;;;;;0.00;0.00;;;;;17.80;100720.00;;;;5108682;28;20063;-77
2022/02/09 01:55:50;;;;;;;0.00;0.00;;;;;17.70;100702.00;;;;5107616;28;20508;-74
2022/02/09 01:58:22;;;;;;;0.00;0.00;;;;;17.70;100709.00;;;;5110219;27;20071;-79
2022/02/09 02:00:51;;;;;;;0.22;0.22;;;;;17.70;100704.00;;;;5121566;27;20125;-77
2022/02/09 02:03:22;;;;;;;0.00;0.00;;;;;17.70;100703.00;;;;5127122;27;20100;-76
2022/02/09 02:05:55;;;;;;;0.00;0.00;;;;;17.60;100705.00;;;;5127671;27;20047;-77
2022/02/09 02:08:25;;;;;;;0.00;0.00;;;;;17.60;100712.00;;;;5128019;27;20043;-76
2022/02/09 02:19:04;;;;;;;0.00;0.00;;;;;17.50;100704.00;;;;5128896;27;20126;-74
2022/02/09 02:21:46;;;;;;;0.00;0.00;;;;;17.50;100691.00;;;;5127827;27;20542;-76
2022/02/09 02:24:42;;;;;;;0.00;0.00;;;;;17.50;100711.00;;;;5128677;27;20054;-78
2022/02/09 02:29:55;;;;;;;0.00;0.00;;;;;17.50;100706.00;;;;5127927;27;20528;-75
2022/02/09 02:32:47;;;;;;;0.00;0.00;;;;;17.50;100696.00;;;;5127777;27;20039;-76
2022/02/09 02:57:06;;;;;;;0.00;0.00;;;;;17.30;100700.00;;;;5106254;28;20124;-75
2022/02/09 03:10:52;;;;;;;0.00;0.00;;;;;17.10;100676.00;;;;5106813;28;20089;-76
2022/02/09 03:13:28;;;;;;;0.00;0.00;;;;;17.10;100699.00;;;;5107194;28;20043;-74
2022/02/09 03:16:09;;;;;;;0.00;0.00;;;;;17.00;100698.00;;;;5109852;28;20067;-76
2022/02/09 03:24:12;;;;;;;0.00;0.00;;;;;17.00;100684.00;;;;5108924;28;20040;-74
2022/02/09 03:43:43;;;;;;;0.00;0.00;;;;;17.00;100672.00;;;;5109961;28;20054;-75
2022/02/09 03:46:24;;;;;;;0.00;0.00;;;;;17.00;100689.00;;;;5110461;28;20043;-75
2022/02/09 03:54:52;;;;;;;0.00;0.00;;;;;17.00;100669.00;;;;5076085;28;20517;-74
2022/02/09 03:59:53;;;;;;;0.03;0.03;;;;;17.00;100665.00;;;;5110731;28;20494;-75
2022/02/09 04:02:23;;;;;;;0.00;0.00;;;;;17.10;100676.00;;;;5109927;28;20079;-73
2022/02/09 04:04:56;;;;;;;0.00;0.00;;;;;17.10;100680.00;;;;5109544;28;20050;-73
2022/02/09 04:07:26;;;;;;;0.00;0.00;;;;;17.10;100674.00;;;;5110081;28;20061;-75
2022/02/09 04:09:58;;;;;;;0.00;0.00;;;;;17.10;100666.00;;;;5109860;28;20046;-76
2022/02/09 04:12:38;;;;;;;0.00;0.00;;;;;17.10;100656.00;;;;5109526;28;20639;-75
2022/02/09 04:36:58;;;;;;;0.00;0.00;;;;;16.90;100646.00;;;;5108168;28;20604;-75
2022/02/09 04:39:35;;;;;;;0.00;0.00;;;;;16.80;100658.00;;;;5109330;28;20044;-75
2022/02/09 04:45:31;;;;;;;0.00;0.00;;;;;16.60;100655.00;;;;5107512;28;20048;-75
2022/02/09 04:50:51;;;;;;;0.00;0.00;;;;;16.50;100635.00;;;;5085331;28;20590;-73
2022/02/09 04:54:15;;;;;;;0.00;0.00;;;;;16.40;100646.00;;;;5108787;28;20058;-73
2022/02/09 04:56:29;;;;;;;0.00;0.00;;;;;16.40;100632.00;;;;5108859;28;20051;-74
2022/02/09 05:28:47;;;;;;;0.00;0.00;;;;;16.20;100638.00;;;;5108138;28;20043;-76
2022/02/09 05:31:17;;;;;;;0.00;0.00;;;;;16.10;100636.00;;;;5107737;28;20069;-73
2022/02/09 05:33:48;;;;;;;0.00;0.00;;;;;16.10;100634.00;;;;5108061;28;20051;-76
2022/02/09 05:36:18;;;;;;;0.00;0.00;;;;;16.10;100632.00;;;;5107775;28;20092;-73
2022/02/09 05:38:47;;;;;;;0.00;0.00;;;;;16.00;100628.00;;;;5107155;28;20051;-76
2022/02/09 05:41:17;;;;;;;0.00;0.00;;;;;15.90;100619.00;;;;5107295;28;20051;-75
2022/02/09 05:43:46;;;;;;;0.00;0.00;;;;;15.90;100606.00;;;;5106072;28;20056;-76
2022/02/09 05:51:54;;;;;;;0.00;0.00;;;;;15.90;100630.00;;;;5107478;28;20396;-75
2022/02/09 05:59:41;;;;;;;0.00;0.00;;;;;15.90;100616.00;;;;5107355;28;20541;-76
2022/02/09 06:02:10;;;;;;;0.00;0.00;;;;;15.90;100625.00;;;;5107181;28;20514;-76
2022/02/09 06:04:40;;;;;;;0.00;0.00;;;;;15.90;100609.00;;;;5106965;28;20035;-77
2022/02/09 06:07:12;;;;;;;0.00;0.00;;;;;15.90;100606.00;;;;5107078;27;20065;-77
2022/02/09 06:09:42;;;;;;;0.00;0.00;;;;;15.90;100607.00;;;;5106703;28;20088;-75
2022/02/09 06:12:29;;;;;;;0.00;0.00;;;;;15.80;100588.00;;;;5106129;28;20042;-76
2022/02/09 06:20:22;;;;;;;0.00;0.00;;;;;15.80;100579.00;;;;5105538;28;20051;-75
2022/02/09 06:22:51;;;;;;;0.00;0.00;;;;;15.90;100589.00;;;;5107090;28;20549;-75
2022/02/09 06:25:23;;;;;;;0.00;0.00;;;;;15.90;100594.00;;;;5107304;28;20043;-75
2022/02/09 06:27:53;;;;;;;0.00;0.00;;;;;15.80;100594.00;;;;5107044;28;20046;-75
2022/02/09 06:30:23;;;;;;;0.00;0.00;;;;;15.80;100607.00;;;;5105984;28;20043;-75
2022/02/09 06:32:54;;;;;;;0.00;0.00;;;;;15.70;100571.00;;;;5107250;28;20051;-77
2022/02/09 06:35:24;;;;;;;0.00;0.00;;;;;15.70;100594.00;;;;5106997;28;20123;-77
2022/02/09 06:37:54;;;;;;;0.00;0.00;;;;;15.70;100605.00;;;;5105891;28;20506;-75
2022/02/09 06:40:24;;;;;;;0.00;0.00;;;;;15.80;100599.00;;;;5107667;28;20032;-75
2022/02/09 06:42:53;;;;;;;0.00;0.00;;;;;15.80;100598.00;;;;5106785;28;20059;-75
2022/02/09 06:45:27;;;;;;;0.00;0.00;;;;;15.80;100607.00;;;;5105035;28;20055;-77
2022/02/09 06:47:58;;;;;;;0.00;0.00;;;;;15.70;100604.00;;;;5105594;28;20048;-75
2022/02/09 06:50:38;;;;;;;0.00;0.00;;;;;15.60;100579.00;;;;5111120;28;20501;-76
2022/02/09 06:55:57;;;;;;;0.00;0.00;;;;;15.60;100586.00;;;;5111152;28;20050;-75
2022/02/09 07:01:06;;;;;;;0.00;0.00;;;;;15.50;100607.00;;;;5111476;28;20081;-75
2022/02/09 07:03:36;;;;;;;0.00;0.00;;;;;15.50;100608.00;;;;5110906;28;20048;-75
2022/02/09 07:06:06;;;;;;;0.00;0.00;;;;;15.50;100591.00;;;;5111263;28;20042;-74
2022/02/09 07:08:36;;;;;;;0.00;0.00;;;;;15.50;100607.00;;;;5111353;28;20040;-76
2022/02/09 07:11:05;;;;;;;0.00;0.00;;;;;15.50;100608.00;;;;5110704;28;20046;-76
2022/02/09 07:13:34;;;;;;;0.00;0.00;;;;;15.50;100604.00;;;;5111531;28;20093;-75
2022/02/09 07:16:05;;;;;;;0.00;0.00;;;;;15.50;100608.00;;;;5110794;28;20513;-76
2022/02/09 07:18:37;;;;;;;0.00;0.00;;;;;15.40;100609.00;;;;5110659;28;20108;-75
2022/02/09 07:21:14;;;;;;;0.00;0.00;;;;;15.40;100604.00;;;;5109156;28;20445;-74
2022/02/09 07:23:48;;;;;;;0.00;0.00;;;;;15.50;100588.00;;;;5110851;28;20134;-77
2022/02/09 07:28:56;;;;;;;0.00;0.00;;;;;15.40;100614.00;;;;5110811;28;20116;-74
2022/02/09 07:31:26;;;;;;;0.00;0.00;;;;;15.40;100606.00;;;;5111509;28;20519;-77
2022/02/09 07:33:56;;;;;;;0.00;0.00;;;;;15.40;100609.00;;;;5110650;28;20043;-75
2022/02/09 07:36:27;;;;;;;0.00;0.00;;;;;15.40;100610.00;;;;5108703;28;20047;-75
2022/02/09 07:38:57;;;;;;;0.00;0.00;;;;;15.40;100600.00;;;;5109791;28;20043;-76
2022/02/09 07:41:32;;;;;;;0.00;0.00;;;;;15.40;100597.00;;;;5110250;28;20518;-75
2022/02/09 07:44:17;;;;;;;0.00;0.00;;;;;15.40;100587.00;;;;5108886;28;20051;-76
2022/02/09 07:47:03;;;;;;;0.00;0.00;;;;;15.40;100593.00;;;;5109900;28;20051;-75
2022/02/09 07:50:03;;;;;;;0.00;0.00;;;;;15.40;100604.00;;;;5110123;28;20043;-75
2022/02/09 07:52:48;;;;;;;0.00;0.00;;;;;15.40;100602.00;;;;5109555;28;20051;-75
2022/02/09 07:55:18;;;;;;;0.00;0.00;;;;;15.40;100601.00;;;;5109549;27;20048;-75
2022/02/09 07:57:47;;;;;;;0.00;0.00;;;;;15.40;100620.00;;;;5110469;27;20042;-76
2022/02/09 08:00:17;;;;;;;0.00;0.00;;;;;15.40;100607.00;;;;5107801;28;20082;-75
2022/02/09 08:02:49;;;;;;;0.00;0.00;;;;;15.40;100615.00;;;;5109904;28;20051;-76
2022/02/09 08:05:22;;;;;;;0.00;0.00;;;;;15.40;100626.00;;;;5110249;28;20052;-75
2022/02/09 08:07:53;;;;;;;0.00;0.00;;;;;15.30;100622.00;;;;5109607;28;20070;-75
2022/02/09 08:10:39;;;;;;;;;;;;;15.30;100625.00;;;;5109466;28;20152;-76
2022/02/09 08:23:08;;;;;;;0.00;0.00;;;;;15.40;100633.00;;;;5109174;28;20040;-76
2022/02/09 08:30:07;;;;;;;0.00;0.00;;;;;15.30;100612.00;;;;5109334;28;20514;-74
2022/02/09 08:32:50;;;;;;;0.00;0.00;;;;;15.20;100627.00;;;;5109375;28;20055;-76
2022/02/09 08:35:20;;;;;;;0.00;0.00;;;;;15.20;100626.00;;;;5108876;28;20043;-76
2022/02/09 08:37:52;;;;;;;0.00;0.00;;;;;15.20;100649.00;;;;5107193;28;20051;-75
2022/02/09 08:40:23;;;;;;;0.00;0.00;;;;;15.10;100639.00;;;;5108597;28;20122;-75
2022/02/09 08:42:54;;;;;;;0.00;0.00;;;;;15.10;100642.00;;;;5108123;28;20052;-75
2022/02/09 08:45:24;;;;;;;0.00;0.00;;;;;15.20;100641.00;;;;5107972;28;20528;-77
2022/02/09 08:47:59;;;;;;;0.00;0.00;;;;;15.10;100644.00;;;;5108202;28;20039;-76
2022/02/09 08:50:29;;;;;;;0.00;0.00;;;;;15.10;100652.00;;;;5108686;27;20546;-75
2022/02/09 08:52:58;;;;;;;0.00;0.00;;;;;15.20;100629.00;;;;5108375;28;20066;-75
2022/02/09 08:55:28;;;;;;;0.00;0.00;;;;;15.20;100652.00;;;;5108460;28;20100;-75
2022/02/09 08:57:58;;;;;;;0.00;0.00;;;;;15.20;100641.00;;;;5107885;28;20039;-75
2022/02/09 09:00:31;;;;;;;0.00;0.00;;;;;15.10;100651.00;;;;5108510;28;20043;-74
2022/02/09 09:05:50;;;;;;;;;;;;;15.20;100659.00;;;;5108613;28;20131;-75
2022/02/09 10:33:09;;;;;;;0.00;0.00;;;;;23.80;100483.00;;;;5105723;28;20043;-78
2022/02/09 10:35:44;;;;;;;0.00;0.00;;;;;27.30;100465.00;;;;5106537;28;20070;-76
2022/02/09 10:38:33;;;;;;;0.00;0.00;;;;;28.60;100454.00;;;;5107098;28;20067;-74
2022/02/09 10:41:27;;;;;;;0.00;0.00;;;;;29.40;100452.00;;;;5106878;28;20028;-76
2022/02/09 10:44:14;;;;;;;15.35;3.40;;;;;29.40;100473.00;;;;5106653;28;20079;-73
2022/02/09 10:46:47;;;;;;;0.00;0.00;;;;;29.90;100463.00;;;;5105168;28;20051;-75
2022/02/09 10:49:19;;;;;;;0.00;0.00;;;;;30.20;100464.00;;;;5106753;28;20039;-77
2022/02/09 10:52:16;;;;;;;0.00;0.00;;;;;30.30;100468.00;;;;5106514;28;20043;-75
2022/02/09 10:54:41;;;;;;;0.00;0.00;;;;;30.20;100464.00;;;;5106679;28;20035;-74
2022/02/09 10:57:11;;;;;;;0.00;0.00;;;;;31.00;100473.00;;;;5105914;28;20050;-76
2022/02/09 10:59:46;;;;;;;0.00;0.00;;;;;31.80;100472.00;;;;5107005;28;20621;-74
2022/02/09 11:02:19;;;;;;;0.00;0.00;;;;;31.50;100475.00;;;;5106514;28;20126;-75
2022/02/09 11:04:49;;;;;;;0.00;0.00;;;;;32.60;100460.00;;;;5106503;28;20043;-75
2022/02/09 11:07:18;;;;;;;0.00;0.00;;;;;32.90;100459.00;;;;5106367;28;20428;-76
2022/02/09 11:09:49;;;;;;;0.00;0.00;;;;;32.70;100469.00;;;;5105868;28;20495;-75
2022/02/09 11:12:20;;;;;;;0.00;0.00;;;;;33.10;100449.00;;;;5106706;28;20679;-77
2022/02/09 11:14:50;;;;;;;0.00;0.00;;;;;33.50;100451.00;;;;5105887;28;20054;-77
2022/02/09 11:17:20;;;;;;;0.10;0.10;;;;;33.10;100442.00;;;;5107009;28;20036;-75
2022/02/09 11:19:52;;;;;;;0.00;0.00;;;;;32.90;100442.00;;;;5105905;28;20070;-75
2022/02/09 11:22:26;;;;;;;0.00;0.00;;;;;33.30;100442.00;;;;5105922;28;20116;-76
2022/02/09 11:25:22;;;;;;;0.10;0.10;;;;;33.80;100434.00;;;;5105878;28;20048;-76
2022/02/09 11:28:18;;;;;;;0.00;0.00;;;;;33.50;100434.00;;;;5105922;28;20036;-75
2022/02/09 11:31:27;;;;;;;0.00;0.00;;;;;34.80;100424.00;;;;5106508;28;20044;-75
2022/02/09 11:34:00;;;;;;;0.00;0.00;;;;;34.90;100424.00;;;;5066444;28;20051;-77
2022/02/09 11:39:13;;;;;;;0.00;0.00;;;;;34.40;100404.00;;;;5109799;28;20048;-76
2022/02/09 11:41:57;;;;;;;0.00;0.00;;;;;34.80;100419.00;;;;5110131;28;20140;-75
2022/02/09 11:44:54;;;;;;;0.13;0.08;;;;;33.90;100422.00;;;;5109674;28;20422;-76
2022/02/09 12:09:50;;;;;;;0.00;0.00;;;;;24.40;100670.00;;;;5101331;28;20175;-76
2022/02/09 12:12:44;;;;;;;0.00;0.00;;;;;24.20;100647.00;;;;5108974;28;20070;-74
2022/02/09 12:15:53;;;;;;;0.00;0.00;;;;;24.10;100681.00;;;;5074482;28;20047;-77
2022/02/09 12:18:29;;;;;;;0.00;0.00;;;;;23.90;100691.00;;;;5108512;28;20042;-78
2022/02/09 12:21:03;;;;;;;0.00;0.00;;;;;23.60;100663.00;;;;5108026;28;20089;-80
2022/02/09 12:23:39;;;;;;;0.00;0.00;;;;;24.40;100648.00;;;;5108553;28;20040;-79
2022/02/09 12:26:11;;;;;;;0.00;0.00;;;;;24.60;100660.00;;;;5107901;28;20044;-74
2022/02/09 12:28:43;;;;;;;0.00;0.00;;;;;24.50;100660.00;;;;5109181;28;20040;-77
2022/02/09 12:31:16;;;;;;;0.00;0.00;;;;;24.00;100674.00;;;;5109579;28;20534;-76
2022/02/09 12:33:51;;;;;;;0.00;0.00;;;;;24.20;100610.00;;;;5109805;28;20043;-77
2022/02/09 12:36:24;;;;;;;0.00;0.00;;;;;26.50;100562.00;;;;5109299;28;20044;-75
2022/02/09 12:38:59;;;;;;;0.00;0.00;;;;;27.50;100610.00;;;;5110672;28;20118;-77
2022/02/09 12:41:31;;;;;;;0.25;0.25;;;;;26.80;100559.00;;;;5121227;28;20059;-74
2022/02/09 12:44:01;;;;;;;0.00;0.00;;;;;28.40;100637.00;;;;5129243;28;20039;-77
2022/02/09 12:46:37;;;;;;;0.00;0.00;;;;;28.30;100643.00;;;;5128663;28;20047;-76
2022/02/09 12:49:08;;;;;;;0.00;0.00;;;;;27.90;100542.00;;;;5124961;28;20107;-78
2022/02/09 12:51:39;;;;;;;0.00;0.00;;;;;27.60;100639.00;;;;5126462;28;20062;-76
2022/02/09 12:54:11;;;;;;;0.00;0.00;;;;;26.60;100645.00;;;;5118476;28;20131;-74
2022/02/09 12:56:52;;;;;;;0.00;0.00;;;;;27.40;100539.00;;;;5109402;28;20050;-75
2022/02/09 12:59:23;;;;;;;1.45;0.47;;;;;27.50;100637.00;;;;5111165;28;20057;-80
2022/02/09 13:01:54;;;;;;;0.00;0.00;;;;;28.80;100630.00;;;;5110637;28;20040;-74
2022/02/09 13:04:42;;;;;;;0.00;0.00;;;;;28.80;100541.00;;;;5107827;28;20166;-77
2022/02/09 13:07:17;;;;;;;0.00;0.00;;;;;29.00;100612.00;;;;5108918;28;20046;-80
2022/02/09 13:09:51;;;;;;;0.00;0.00;;;;;28.10;100646.00;;;;5106963;28;20108;-78
2022/02/09 13:12:28;;;;;;;0.00;0.00;;;;;27.80;100566.00;;;;5090568;28;20518;-81
2022/02/09 13:15:21;;;;;;;0.00;0.00;;;;;28.80;100549.00;;;;5109460;28;20079;-82
2022/02/09 14:05:57;;;;;;;0.00;0.00;;;;;28.50;100583.00;;;;5107648;28;20109;-78
2022/02/09 14:35:04;;;;;;;0.00;0.00;;;;;32.60;100511.00;;;;5104382;28;20047;-76
2022/02/09 14:49:54;;;;;;;0.00;0.00;;;;;30.90;100476.00;;;;5106249;28;20071;-76
2022/02/09 14:52:08;;;;;;;0.00;0.00;;;;;31.70;100469.00;;;;5106534;28;20047;-78
2022/02/09 14:57:16;;;;;;;0.00;0.00;;;;;31.50;100457.00;;;;5106700;28;20052;-74
2022/02/09 15:00:03;;;;;;;0.00;0.00;;;;;32.10;100508.00;;;;5104901;28;20068;-74
2022/02/09 15:05:50;;;;;;;0.00;0.00;;;;;31.50;100493.00;;;;5105694;28;20043;-75
2022/02/09 15:08:23;;;;;;;0.10;0.10;;;;;31.70;100458.00;;;;5106402;28;20058;-72
2022/02/09 15:11:06;;;;;;;0.00;0.00;;;;;33.00;100462.00;;;;5108257;28;20055;-74
2022/02/09 15:14:15;;;;;;;0.00;0.00;;;;;32.60;100520.00;;;;5110231;28;20043;-76
2022/02/09 15:16:47;;;;;;;0.10;0.10;;;;;30.70;100498.00;;;;5108306;28;20062;-78
2022/02/09 15:22:07;;;;;;;0.00;0.00;;;;;31.90;100446.00;;;;5109821;28;20562;-73
2022/02/09 15:24:44;;;;;;;0.00;0.00;;;;;32.30;100450.00;;;;5108764;28;20514;-75
2022/02/09 15:27:20;;;;;;;0.00;0.00;;;;;32.60;100453.00;;;;5110299;28;20066;-76
2022/02/09 15:29:50;;;;;;;0.03;0.00;;;;;32.80;100441.00;;;;5109587;28;20047;-78
2022/02/09 15:32:32;;;;;;;0.00;0.00;;;;;32.30;100425.00;;;;5109845;28;21238;-75
2022/02/09 15:35:16;;;;;;;0.00;0.00;;;;;32.80;100439.00;;;;5108717;28;20051;-74
2022/02/09 16:08:13;;;;;;;0.00;0.00;;;;;33.90;100398.00;;;;5109330;28;20510;-75
2022/02/09 16:23:46;;;;;;;0.00;0.00;;;;;34.30;100386.00;;;;5109624;28;20581;-76
2022/02/09 16:37:48;;;;;;;0.00;0.00;;;;;35.70;100379.00;;;;5109183;28;20106;-78
2022/02/09 16:46:12;;;;;;;;;;;;;35.30;100441.00;;;;5109275;28;20118;-75
2022/02/09 16:48:52;;;;;;;0.00;0.00;;;;;32.60;100453.00;;;;5107742;28;19923;-75
2022/02/09 16:51:23;;;;;;;0.00;0.00;;;;;31.30;100348.00;;;;5106818;28;20067;-72
2022/02/09 16:57:00;;;;;;;0.00;0.00;;;;;32.50;100414.00;;;;5107893;28;20089;-76
2022/02/09 17:19:17;;;;;;;0.00;0.00;;;;;33.90;100315.00;;;;5108376;28;20504;-75
2022/02/09 17:21:46;;;;;;;0.00;0.00;;;;;34.30;100400.00;;;;5108707;28;20130;-73
2022/02/09 17:24:16;;;;;;;0.00;0.00;;;;;33.40;100399.00;;;;5108335;28;20523;-77
2022/02/09 17:26:45;;;;;;;0.00;0.00;;;;;31.80;100390.00;;;;5107557;28;20043;-80
2022/02/09 17:29:22;;;;;;;0.00;0.00;;;;;33.30;100312.00;;;;5106269;28;20058;-75
2022/02/09 17:32:06;;;;;;;4.47;0.22;;;;;32.20;100392.00;;;;5102834;28;20082;-76
2022/02/09 17:53:57;;;;;;;0.10;0.00;;;;;32.50;100288.00;;;;5107241;28;20092;-75
2022/02/09 17:56:30;;;;;;;0.00;0.00;;;;;35.10;100283.00;;;;5106370;28;20075;-72
2022/02/09 17:59:03;;;;;;;0.00;0.00;;;;;36.30;100296.00;;;;5107908;28;20896;-74
2022/02/09 18:01:33;;;;;;;0.00;0.00;;;;;33.60;100383.00;;;;5106008;28;20055;-75
2022/02/09 18:04:02;;;;;;;0.00;0.00;;;;;33.00;100399.00;;;;5107141;28;20438;-76
2022/02/09 18:06:32;;;;;;;0.00;0.00;;;;;30.30;100394.00;;;;5105215;28;20134;-78
2022/02/09 18:09:09;;;;;;;0.03;0.00;;;;;31.90;100300.00;;;;5107556;28;20043;-73
2022/02/09 18:25:31;;;;;;;0.20;0.20;;;;;31.00;100365.00;;;;5113895;27;20036;-76
2022/02/09 18:33:51;;;;;;;0.13;0.10;;;;;29.60;100300.00;;;;5113703;27;20076;-75
2022/02/09 18:42:44;;;;;;;0.00;0.00;;;;;34.60;100283.00;;;;5115953;28;20042;-74
2022/02/09 19:04:47;;;;;;;0.00;0.00;;;;;38.10;100274.00;;;;5113418;28;20479;-76
2022/02/09 19:15:58;;;;;;;0.00;0.00;;;;;37.80;100261.00;;;;5117315;27;20035;-76
2022/02/09 19:27:02;;;;;;;1.77;0.65;;;;;37.70;100285.00;;;;5109309;28;20072;-77
2022/02/09 19:32:33;;;;;;;0.30;0.00;;;;;37.50;100286.00;;;;5122070;28;20040;-74
2022/02/09 19:45:56;;;;;;;0.00;0.00;;;;;38.20;100305.00;;;;5124759;28;20051;-75
2022/02/09 19:48:34;;;;;;;33.40;8.00;;;;;38.10;100294.00;;;;5126407;27;20077;-76
2022/02/09 19:56:26;;;;;;;1.65;0.10;;;;;36.50;100301.00;;;;5115800;27;20043;-78
2022/02/09 19:59:02;;;;;;;6.40;1.45;;;;;35.70;100325.00;;;;5113424;27;20068;-75
2022/02/09 20:01:36;;;;;;;1.23;0.32;;;;;34.70;100325.00;;;;5120332;27;20063;-75
2022/02/09 20:04:07;;;;;;;0.00;0.00;;;;;31.30;100342.00;;;;5129902;27;20035;-76
2022/02/09 20:06:37;;;;;;;2.72;1.35;;;;;30.40;100330.00;;;;5128954;27;20096;-76
2022/02/09 20:09:10;;;;;;;0.00;0.00;;;;;32.20;100310.00;;;;5121847;27;20046;-74
2022/02/09 20:11:44;;;;;;;0.00;0.00;;;;;31.90;100334.00;;;;5111992;27;20047;-74
2022/02/09 20:14:14;;;;;;;0.00;0.00;;;;;30.20;100355.00;;;;5117355;27;20071;-76
2022/02/09 20:16:43;;;;;;;0.00;0.00;;;;;28.20;100364.00;;;;5111288;27;20101;-74
2022/02/09 20:19:13;;;;;;;0.00;0.00;;;;;27.40;100365.00;;;;5118276;27;20044;-77
2022/02/09 20:21:43;;;;;;;0.00;0.00;;;;;27.80;100364.00;;;;5114506;27;20070;-75
2022/02/09 20:24:17;;;;;;;0.00;0.00;;;;;27.30;100361.00;;;;5108439;28;20039;-74
2022/02/09 20:26:50;;;;;;;0.10;0.00;;;;;26.30;100375.00;;;;5117350;27;20054;-75
2022/02/09 20:29:26;;;;;;;0.00;0.00;;;;;25.80;100367.00;;;;5117748;27;20540;-74
2022/02/09 20:32:44;;;;;;;0.00;0.00;;;;;25.60;100351.00;;;;5118557;27;20134;-75
2022/02/09 20:34:55;;;;;;;0.00;0.00;;;;;25.40;100366.00;;;;5109118;27;20050;-74
2022/02/09 20:37:27;;;;;;;0.00;0.00;;;;;25.30;100359.00;;;;5114753;27;20758;-72
2022/02/09 20:40:08;;;;;;;0.00;0.00;;;;;25.20;100360.00;;;;5119008;27;20040;-72
2022/02/09 20:42:48;;;;;;;0.00;0.00;;;;;25.10;100379.00;;;;5118085;27;20085;-73
2022/02/09 20:46:05;;;;;;;0.00;0.00;;;;;25.10;100366.00;;;;5119811;27;20043;-73
2022/02/09 20:48:16;;;;;;;0.00;0.00;;;;;24.90;100373.00;;;;5117418;27;20051;-72
2022/02/09 20:50:46;;;;;;;0.00;0.00;;;;;24.80;100374.00;;;;5106975;28;20058;-75
2022/02/09 20:53:15;;;;;;;0.00;0.00;;;;;24.70;100394.00;;;;5113038;27;20130;-74
2022/02/09 20:55:46;;;;;;;0.00;0.00;;;;;24.60;100388.00;;;;5113118;27;20066;-72
2022/02/09 20:58:17;;;;;;;0.00;0.00;;;;;24.50;100373.00;;;;5117096;27;20039;-74
2022/02/09 21:01:01;;;;;;;0.00;0.00;;;;;24.40;100372.00;;;;5107392;28;20044;-75
2022/02/09 21:09:00;;;;;;;0.00;0.00;;;;;24.10;100378.00;;;;5114298;27;20036;-75
2022/02/09 21:11:49;;;;;;;0.00;0.00;;;;;24.00;100393.00;;;;5109009;27;20418;-73
2022/02/09 21:14:44;;;;;;;0.08;0.00;;;;;23.90;100388.00;;;;5108502;27;20135;-76
2022/02/09 21:44:48;;;;;;;0.00;0.00;;;;;23.10;100399.00;;;;5107003;28;20108;-74
2022/02/09 21:55:41;;;;;;;0.20;0.05;;;;;22.60;100411.00;;;;5116984;28;20059;-75
2022/02/09 22:24:13;;;;;;;0.00;0.00;;;;;21.60;100453.00;;;;5068708;28;20483;-77
2022/02/09 22:26:47;;;;;;;0.00;0.00;;;;;21.50;100442.00;;;;5105241;28;20510;-75
2022/02/09 22:48:15;;;;;;;0.00;0.00;;;;;21.20;100453.00;;;;5106520;28;20160;-76
2022/02/09 22:50:54;;;;;;;0.00;0.00;;;;;21.30;100448.00;;;;5104984;28;20048;-77
2022/02/09 22:56:12;;;;;;;0.00;0.00;;;;;21.30;100445.00;;;;5106196;28;20051;-75
2022/02/09 22:58:42;;;;;;;0.00;0.00;;;;;21.30;100452.00;;;;5105104;28;20056;-76
2022/02/09 23:01:23;;;;;;;0.10;0.10;;;;;21.40;100453.00;;;;5106185;28;20498;-79
2022/02/09 23:06:51;;;;;;;0.00;0.00;;;;;21.20;100455.00;;;;5104841;28;20071;-77
2022/02/09 23:12:07;;;;;;;0.00;0.00;;;;;21.10;100480.00;;;;5105892;28;20050;-75
2022/02/09 23:17:45;;;;;;;0.00;0.00;;;;;21.20;100483.00;;;;5106593;28;20102;-75
2022/02/09 23:23:48;;;;;;;0.00;0.00;;;;;21.10;100488.00;;;;5105118;28;20047;-79
2022/02/09 23:58:46;;;;;;;;;;;;;20.30;100521.00;;;;5126808;27;20122;-75
